Time;durP1;ratioP1;P1;durP2;ratioP2;P2;SDS_P1;SDS_P2;PMS_P1;PMS_P2;Temp;Humidity;BMP_temperature;BMP_pressure;BME280_temperature;BME280_humidity;BME280_pressure;Samples;Min_cycle;Max_cycle;Signal;HPM_P1;HPM_P2
2021/07/21 00:02:06;;;;;;;12.38;8.30;;;;;;;20.95;73.59;101631.28;5007454;28;20025;-82
2021/07/21 00:04:32;;;;;;;13.15;9.23;;;;;;;20.95;73.55;101639.47;5002503;28;20394;-82
2021/07/21 00:06:57;;;;;;;15.65;9.85;;;;;;;20.89;74.68;101661.41;5008108;28;20026;-82
2021/07/21 00:09:23;;;;;;;14.52;8.93;;;;;;;20.80;74.96;101652.66;5009916;28;20057;-82
2021/07/21 00:14:33;;;;;;;15.98;9.35;;;;;;;20.75;75.39;101655.22;5007776;28;20044;-82
2021/07/21 00:17:16;;;;;;;15.73;9.05;;;;;;;20.74;75.42;101653.53;5015088;28;20105;-83
2021/07/21 00:22:27;;;;;;;14.65;8.07;;;;;;;20.75;74.78;101661.50;5010472;28;20467;-82
2021/07/21 00:24:53;;;;;;;12.30;8.27;;;;;;;20.69;74.72;101651.44;5015064;28;20034;-82
2021/07/21 00:27:18;;;;;;;14.00;9.35;;;;;;;20.58;74.45;101649.44;5001666;28;20017;-82
2021/07/21 00:29:43;;;;;;;15.73;8.20;;;;;;;20.50;74.57;101649.66;4998982;28;20089;-83
2021/07/21 00:32:09;;;;;;;13.25;7.43;;;;;;;20.40;74.88;101641.94;5003473;28;20026;-81
2021/07/21 00:34:34;;;;;;;12.52;8.13;;;;;;;20.20;75.22;101640.16;5007890;28;20038;-82
2021/07/21 00:37:00;;;;;;;14.45;8.82;;;;;;;20.20;75.56;101634.72;5011788;28;20062;-83
2021/07/21 00:39:25;;;;;;;13.07;8.98;;;;;;;20.19;75.50;101640.38;5011243;28;20830;-83
2021/07/21 00:41:50;;;;;;;16.98;9.18;;;;;;;20.01;75.77;101624.75;4995217;28;20038;-83
2021/07/21 00:44:16;;;;;;;14.13;8.45;;;;;;;19.92;75.82;101623.28;5014674;28;20029;-82
2021/07/21 00:46:42;;;;;;;11.10;7.88;;;;;;;19.89;75.85;101623.72;5010539;28;20106;-82
2021/07/21 00:49:07;;;;;;;13.60;7.32;;;;;;;19.88;75.80;101639.28;5008822;28;20092;-82
2021/07/21 00:51:33;;;;;;;11.80;7.30;;;;;;;19.85;75.90;101641.63;5013360;28;20034;-83
2021/07/21 00:54:00;;;;;;;15.68;8.00;;;;;;;19.72;76.30;101629.69;5015008;28;20018;-82
2021/07/21 00:56:25;;;;;;;12.88;8.93;;;;;;;19.60;76.10;101620.44;5001401;28;21495;-82
2021/07/21 00:58:51;;;;;;;12.73;8.52;;;;;;;19.60;76.25;101625.06;5014438;28;20079;-81
2021/07/21 01:01:16;;;;;;;13.70;8.18;;;;;;;19.51;76.57;101617.13;5020968;28;20025;-82
2021/07/21 01:03:42;;;;;;;14.00;8.65;;;;;;;19.43;76.89;101614.63;4997701;28;20078;-82
2021/07/21 01:06:08;;;;;;;15.30;8.10;;;;;;;19.51;76.66;101630.75;5003930;28;20033;-81
2021/07/21 01:08:33;;;;;;;9.48;7.80;;;;;;;19.53;76.17;101627.84;4995296;28;20040;-82
2021/07/21 01:11:14;;;;;;;11.65;7.88;;;;;;;19.57;76.54;101626.34;5012287;28;20030;-83
2021/07/21 01:13:49;;;;;;;17.00;9.15;;;;;;;19.58;76.68;101622.53;5012943;28;20026;-83
2021/07/21 01:16:22;;;;;;;13.32;7.88;;;;;;;19.60;77.04;101627.78;5030187;28;20014;-83
2021/07/21 01:18:50;;;;;;;;;;;;;;;19.69;77.04;101641.03;5013967;28;20129;-83
2021/07/21 01:21:36;;;;;;;11.48;7.68;;;;;;;19.81;76.25;101643.09;5016408;28;19913;-82
2021/07/21 01:24:30;;;;;;;12.93;8.20;;;;;;;19.86;75.72;101635.09;5015266;28;20041;-82
2021/07/21 01:26:55;;;;;;;11.60;7.85;;;;;;;19.94;75.23;101649.31;5024530;28;20045;-82
2021/07/21 01:29:24;;;;;;;11.68;8.80;;;;;;;19.98;74.97;101644.28;5013480;28;20033;-82
2021/07/21 01:31:51;;;;;;;18.05;8.13;;;;;;;20.03;74.95;101649.06;5015880;28;20030;-82
2021/07/21 01:34:18;;;;;;;13.43;8.02;;;;;;;20.04;74.63;101645.31;5017331;28;20036;-82
2021/07/21 01:36:50;;;;;;;12.23;8.52;;;;;;;20.09;74.25;101659.16;5011849;28;20022;-82
2021/07/21 01:39:17;;;;;;;11.23;7.93;;;;;;;20.14;74.40;101649.25;5021833;28;20026;-81
2021/07/21 01:41:50;;;;;;;15.38;8.25;;;;;;;20.08;74.27;101660.19;4991796;28;20033;-82
2021/07/21 01:44:19;;;;;;;11.50;8.40;;;;;;;20.04;74.90;101651.59;5015496;28;20037;-83
2021/07/21 01:46:51;;;;;;;10.98;8.45;;;;;;;20.05;74.73;101650.53;5007146;28;20030;-82
2021/07/21 01:49:17;;;;;;;12.93;8.60;;;;;;;20.09;74.25;101651.78;5014565;28;20056;-82
2021/07/21 01:51:44;;;;;;;13.65;8.18;;;;;;;20.18;74.18;101661.38;5011897;28;20523;-83
2021/07/21 01:54:10;;;;;;;14.45;8.25;;;;;;;20.18;74.16;101661.38;4995851;28;20021;-80
2021/07/21 01:56:35;;;;;;;14.02;9.15;;;;;;;19.94;73.74;101657.50;5021971;28;20028;-83
2021/07/21 01:59:01;;;;;;;12.50;7.75;;;;;;;19.90;73.94;101669.94;5004699;28;20323;-83
2021/07/21 02:01:28;;;;;;;14.55;7.75;;;;;;;19.88;73.77;101661.13;5019774;28;20034;-83
2021/07/21 02:03:56;;;;;;;15.55;8.50;;;;;;;19.71;74.20;101655.31;5017960;28;20029;-85
2021/07/21 02:06:22;;;;;;;15.75;8.95;;;;;;;19.63;75.21;101657.38;5013215;28;20040;-79
2021/07/21 02:08:48;;;;;;;12.60;8.10;;;;;;;19.53;75.02;101657.84;5013714;28;20034;-80
2021/07/21 02:11:14;;;;;;;13.23;8.10;;;;;;;19.40;75.19;101652.41;5015538;28;20030;-83
2021/07/21 02:13:40;;;;;;;12.70;7.18;;;;;;;19.35;75.12;101652.22;5015749;28;20037;-79
2021/07/21 02:16:06;;;;;;;14.20;7.82;;;;;;;19.30;75.37;101663.75;4997191;28;20492;-83
2021/07/21 02:18:33;;;;;;;10.80;7.90;;;;;;;19.25;75.45;101658.91;5021465;28;20041;-83
2021/07/21 02:21:02;;;;;;;12.77;8.27;;;;;;;19.19;75.58;101662.50;5014040;28;20034;-83
2021/07/21 02:23:28;;;;;;;11.98;7.57;;;;;;;19.13;75.81;101665.22;4999923;28;20041;-82
2021/07/21 02:25:58;;;;;;;12.40;8.25;;;;;;;19.07;75.62;101659.56;5000280;28;20382;-83
2021/07/21 02:28:23;;;;;;;15.95;7.70;;;;;;;19.02;76.05;101655.78;5009551;28;20033;-80
2021/07/21 02:30:53;;;;;;;10.05;6.85;;;;;;;19.05;75.71;101652.63;5016345;28;20037;-82
2021/07/21 02:33:32;;;;;;;13.52;8.23;;;;;;;19.09;75.59;101659.34;5016345;28;20051;-83
2021/07/21 02:35:58;;;;;;;13.05;8.18;;;;;;;19.06;75.66;101657.88;5014477;28;20030;-83
2021/07/21 02:38:24;;;;;;;13.25;8.55;;;;;;;19.08;75.91;101660.41;5016594;28;20050;-83
2021/07/21 02:40:49;;;;;;;12.82;7.78;;;;;;;19.06;76.15;101668.78;5014432;28;20037;-83
2021/07/21 02:43:15;;;;;;;11.02;7.30;;;;;;;18.97;76.18;101658.28;5012187;28;20057;-81
2021/07/21 02:45:40;;;;;;;10.23;6.65;;;;;;;18.72;76.23;101638.97;5028128;28;20034;-83
2021/07/21 02:48:06;;;;;;;9.95;7.07;;;;;;;18.64;77.04;101653.63;5019942;28;20026;-80
2021/07/21 02:50:32;;;;;;;13.50;7.35;;;;;;;18.65;77.13;101655.31;5014281;28;20530;-83
2021/07/21 02:53:03;;;;;;;13.85;7.60;;;;;;;18.56;77.09;101665.56;4996498;28;20064;-83
2021/07/21 02:55:41;;;;;;;11.35;7.30;;;;;;;18.48;76.71;101643.16;5029273;28;20028;-83
2021/07/21 02:58:12;;;;;;;9.00;6.85;;;;;;;18.49;76.62;101652.97;5014701;28;20025;-83
2021/07/21 03:00:37;;;;;;;13.60;9.45;;;;;;;18.46;76.44;101651.50;5009915;28;20037;-84
2021/07/21 03:03:09;;;;;;;9.63;7.20;;;;;;;18.45;76.96;101649.84;5010537;28;20029;-83
2021/07/21 03:05:36;;;;;;;13.90;7.90;;;;;;;18.37;77.67;101642.69;5010281;28;20504;-83
2021/07/21 03:08:02;;;;;;;12.82;7.32;;;;;;;18.24;77.46;101642.66;5012407;28;20095;-84
2021/07/21 03:10:29;;;;;;;13.75;6.85;;;;;;;18.14;77.80;101634.88;5014660;28;20108;-80
2021/07/21 03:13:01;;;;;;;11.65;7.47;;;;;;;18.13;77.11;101633.22;5004325;28;20456;-80
2021/07/21 03:15:32;;;;;;;12.20;7.13;;;;;;;17.94;76.92;101610.34;5010066;28;20018;-79
2021/07/21 03:17:59;;;;;;;10.95;7.20;;;;;;;18.02;77.46;101628.38;5006554;28;20116;-81
2021/07/21 03:20:25;;;;;;;12.65;7.25;;;;;;;17.92;77.42;101627.91;5013081;28;20038;-80
2021/07/21 03:22:52;;;;;;;13.32;8.10;;;;;;;17.90;78.41;101629.97;5011034;28;20021;-83
2021/07/21 03:25:17;;;;;;;12.70;8.38;;;;;;;17.84;78.75;101622.66;5015924;28;20641;-84
2021/07/21 03:27:44;;;;;;;11.65;8.05;;;;;;;17.86;78.93;101620.53;5016811;28;20029;-83
2021/07/21 03:30:11;;;;;;;14.90;8.68;;;;;;;17.83;78.64;101632.66;4997023;28;20096;-84
2021/07/21 03:32:38;;;;;;;12.95;8.65;;;;;;;17.84;79.04;101630.81;5011623;28;20099;-84
2021/07/21 03:35:05;;;;;;;13.80;8.73;;;;;;;17.87;78.92;101627.69;4996486;28;20022;-85
2021/07/21 03:37:32;;;;;;;14.63;9.23;;;;;;;17.84;78.80;101623.47;4994303;28;20164;-84
2021/07/21 03:39:58;;;;;;;10.57;7.88;;;;;;;17.85;78.33;101622.41;4999211;28;20683;-85
2021/07/21 03:42:28;;;;;;;16.08;8.10;;;;;;;18.08;77.26;101629.44;5012568;28;20048;-85
2021/07/21 03:45:06;;;;;;;14.43;8.82;;;;;;;18.09;77.26;101622.94;5014689;28;20041;-82
2021/07/21 03:47:32;;;;;;;15.63;9.35;;;;;;;18.07;77.92;101608.69;5011157;28;20033;-85
2021/07/21 03:49:57;;;;;;;15.38;9.05;;;;;;;18.20;77.95;101625.88;4996411;28;20021;-83
2021/07/21 03:52:24;;;;;;;14.55;9.07;;;;;;;18.19;77.62;101617.94;5013489;28;20388;-84
2021/07/21 03:54:50;;;;;;;13.48;8.50;;;;;;;18.15;77.04;101616.66;5015577;28;20026;-85
2021/07/21 03:57:17;;;;;;;14.05;8.27;;;;;;;18.16;76.97;101632.81;5027968;28;20026;-85
2021/07/21 03:59:43;;;;;;;14.40;9.15;;;;;;;17.97;77.44;101619.97;5014042;28;20026;-85
2021/07/21 04:02:09;;;;;;;12.73;8.40;;;;;;;17.87;77.53;101633.13;4995469;28;20052;-84
2021/07/21 04:04:35;;;;;;;14.75;8.55;;;;;;;17.72;78.40;101625.88;4996965;28;20022;-85
2021/07/21 04:07:01;;;;;;;14.80;8.73;;;;;;;17.69;78.80;101633.63;5016871;28;20025;-85
2021/07/21 04:09:28;;;;;;;16.02;9.13;;;;;;;17.64;79.27;101622.50;5013602;28;20033;-84
2021/07/21 04:11:56;;;;;;;15.77;10.02;;;;;;;17.72;79.11;101631.31;4998005;28;21373;-85
2021/07/21 04:14:22;;;;;;;13.32;9.40;;;;;;;17.67;79.81;101619.38;5026048;28;20030;-84
2021/07/21 04:16:48;;;;;;;16.10;9.43;;;;;;;17.57;79.80;101620.59;5014735;28;20036;-84
2021/07/21 04:19:14;;;;;;;16.90;9.77;;;;;;;17.52;80.37;101620.34;4999522;28;20109;-83
2021/07/21 04:21:41;;;;;;;16.42;10.15;;;;;;;17.41;80.55;101614.63;4998372;28;20069;-82
2021/07/21 04:24:09;;;;;;;19.08;10.13;;;;;;;17.47;80.45;101619.28;5017959;28;20026;-81
2021/07/21 04:26:35;;;;;;;15.15;9.15;;;;;;;17.38;80.74;101615.03;5001683;28;20030;-85
2021/07/21 04:29:01;;;;;;;17.77;9.65;;;;;;;17.40;80.34;101610.25;5019794;28;20022;-84
2021/07/21 04:31:26;;;;;;;14.02;9.15;;;;;;;17.37;80.36;101611.47;5021005;28;20057;-85
2021/07/21 04:33:56;;;;;;;14.55;9.60;;;;;;;17.12;80.77;101579.34;5014464;28;20441;-85
2021/07/21 04:36:23;;;;;;;15.32;8.90;;;;;;;17.36;81.02;101626.97;5008204;28;20021;-85
2021/07/21 04:38:49;;;;;;;15.57;10.30;;;;;;;17.31;81.65;101609.56;5009703;28;20065;-83
2021/07/21 04:41:15;;;;;;;14.65;9.90;;;;;;;17.30;82.25;101613.31;5014937;28;20025;-83
2021/07/21 04:43:41;;;;;;;15.55;10.32;;;;;;;17.31;82.76;101615.84;5015182;28;20036;-80
2021/07/21 04:46:06;;;;;;;15.57;10.18;;;;;;;17.33;82.74;101602.91;5000183;28;20029;-85
2021/07/21 04:48:32;;;;;;;14.40;9.48;;;;;;;17.47;82.76;101628.28;5005538;28;20124;-82
2021/07/21 04:50:58;;;;;;;18.30;9.60;;;;;;;17.23;82.51;101588.00;5012205;28;20037;-84
2021/07/21 04:53:23;;;;;;;15.75;9.05;;;;;;;17.36;82.05;101624.25;5009831;28;20034;-85
2021/07/21 04:55:49;;;;;;;13.68;9.18;;;;;;;17.36;82.14;101612.53;4993714;28;20026;-81
2021/07/21 04:58:15;;;;;;;14.45;9.23;;;;;;;17.48;82.10;101640.00;5014272;28;20460;-84
2021/07/21 05:00:40;;;;;;;17.92;10.07;;;;;;;17.44;82.00;101634.13;5017023;28;20030;-84
2021/07/21 05:03:06;;;;;;;15.00;9.07;;;;;;;17.38;82.52;101623.19;5012677;28;20091;-81
2021/07/21 05:05:39;;;;;;;16.35;9.38;;;;;;;17.45;82.14;101643.09;5014049;28;20034;-82
2021/07/21 05:08:05;;;;;;;17.25;9.98;;;;;;;17.43;82.02;101621.53;5014222;28;20038;-83
2021/07/21 05:10:31;;;;;;;15.40;8.88;;;;;;;17.69;81.58;101644.50;4998745;28;20034;-83
2021/07/21 05:12:57;;;;;;;16.75;10.15;;;;;;;17.77;81.28;101641.59;4998049;28;20033;-83
2021/07/21 05:15:23;;;;;;;15.13;10.27;;;;;;;17.80;81.20;101633.06;5017103;28;20036;-84
2021/07/21 05:17:48;;;;;;;19.38;10.90;;;;;;;18.00;81.21;101652.22;5012956;28;20030;-85
2021/07/21 05:20:14;;;;;;;19.83;11.55;;;;;;;18.03;81.38;101646.38;4996780;28;20299;-85
2021/07/21 05:22:45;;;;;;;16.45;10.98;;;;;;;18.16;81.06;101648.28;4991759;28;20057;-81
2021/07/21 05:25:15;;;;;;;16.30;9.82;;;;;;;18.27;81.03;101653.13;5010869;28;20033;-83
2021/07/21 05:27:41;;;;;;;17.85;9.65;;;;;;;18.41;80.73;101660.28;5007303;28;20032;-83
2021/07/21 05:30:07;;;;;;;13.85;10.07;;;;;;;18.26;80.20;101635.13;5000134;28;20029;-84
2021/07/21 05:32:33;;;;;;;14.90;10.38;;;;;;;18.40;80.68;101660.50;4995284;28;20526;-84
2021/07/21 05:34:58;;;;;;;16.23;11.02;;;;;;;18.43;80.97;101657.38;5014929;28;20029;-84
2021/07/21 05:37:24;;;;;;;16.90;10.75;;;;;;;18.48;80.93;101668.50;5010760;28;20108;-84
2021/07/21 05:39:49;;;;;;;19.08;10.48;;;;;;;18.53;81.08;101668.72;4995138;28;20517;-83
2021/07/21 05:42:15;;;;;;;16.02;10.07;;;;;;;18.49;81.48;101664.72;5008067;28;20087;-84
2021/07/21 05:44:41;;;;;;;18.33;10.18;;;;;;;18.58;81.48;101670.81;4995487;28;20102;-83
2021/07/21 05:47:06;;;;;;;14.30;9.90;;;;;;;18.55;81.76;101665.75;5010651;28;20025;-84
2021/07/21 05:49:31;;;;;;;19.90;9.73;;;;;;;18.55;81.88;101669.34;5011389;28;20502;-85
2021/07/21 05:51:57;;;;;;;15.63;9.88;;;;;;;18.55;82.13;101674.78;5008782;28;20491;-85
2021/07/21 05:54:22;;;;;;;18.92;11.13;;;;;;;18.59;82.43;101680.66;5008998;28;20439;-84
2021/07/21 05:56:48;;;;;;;23.25;11.82;;;;;;;18.63;82.43;101679.22;5007824;28;20037;-84
2021/07/21 05:59:13;;;;;;;19.25;11.07;;;;;;;18.63;82.26;101676.50;4994339;28;20041;-84
2021/07/21 06:01:39;;;;;;;14.95;9.65;;;;;;;18.77;82.17;101674.66;4996354;28;20057;-84
2021/07/21 06:04:05;;;;;;;18.15;10.60;;;;;;;18.93;82.10;101692.47;5008199;28;20033;-84
2021/07/21 06:06:31;;;;;;;20.80;10.13;;;;;;;18.92;82.00;101680.75;5019369;28;20523;-84
2021/07/21 06:08:56;;;;;;;19.08;10.40;;;;;;;18.98;81.78;101688.09;5001466;28;20034;-84
2021/07/21 06:11:22;;;;;;;13.38;9.68;;;;;;;19.04;81.95;101691.84;5016082;28;20033;-84
2021/07/21 06:13:47;;;;;;;17.25;10.77;;;;;;;19.14;81.79;101694.16;5017729;28;20038;-84
2021/07/21 06:16:15;;;;;;;15.32;10.27;;;;;;;19.09;81.90;101684.72;5020921;28;20095;-84
2021/07/21 06:18:44;;;;;;;16.08;10.57;;;;;;;19.08;82.11;101685.78;5009893;28;20046;-84
2021/07/21 06:21:10;;;;;;;14.85;10.50;;;;;;;19.15;82.09;101687.66;5013222;28;20436;-84
2021/07/21 06:23:35;;;;;;;17.10;10.52;;;;;;;19.15;82.21;101683.03;4999328;28;20022;-84
2021/07/21 06:26:00;;;;;;;15.88;9.50;;;;;;;19.14;82.30;101680.53;5000603;28;20038;-83
2021/07/21 06:28:27;;;;;;;17.13;10.43;;;;;;;19.26;82.28;101695.19;5018852;28;20048;-84
2021/07/21 06:30:52;;;;;;;15.23;10.57;;;;;;;19.36;82.06;101689.31;5000838;28;20049;-84
2021/07/21 06:33:18;;;;;;;14.85;10.23;;;;;;;19.57;81.53;101699.16;4995478;28;20025;-83
2021/07/21 06:35:47;;;;;;;15.23;10.60;;;;;;;19.71;81.09;101701.69;5009884;28;20026;-84
2021/07/21 06:38:13;;;;;;;16.55;10.48;;;;;;;20.05;80.28;101712.50;5012713;28;20112;-83
2021/07/21 06:40:39;;;;;;;17.23;9.73;;;;;;;20.16;80.01;101690.84;4999837;28;20070;-84
2021/07/21 06:43:05;;;;;;;15.57;10.05;;;;;;;20.36;79.37;101698.09;4999012;28;20025;-84
2021/07/21 06:45:30;;;;;;;14.65;9.55;;;;;;;20.47;78.84;101691.91;5012765;28;20021;-83
2021/07/21 06:47:55;;;;;;;16.88;9.40;;;;;;;20.38;78.64;101668.66;5012323;28;20748;-85
2021/07/21 06:50:22;;;;;;;14.85;10.20;;;;;;;20.50;78.89;101694.22;5011938;28;20618;-84
2021/07/21 06:52:48;;;;;;;20.98;10.50;;;;;;;20.69;78.35;101699.81;5017245;28;20068;-84
2021/07/21 06:55:13;;;;;;;17.08;10.57;;;;;;;20.74;78.49;101703.53;5016211;28;20030;-81
2021/07/21 06:57:39;;;;;;;21.35;12.57;;;;;;;20.81;78.57;101709.81;5022532;28;20056;-79
2021/07/21 07:00:06;;;;;;;16.95;9.73;;;;;;;20.88;78.63;101715.25;5016864;28;20033;-80
2021/07/21 07:02:31;;;;;;;19.77;10.77;;;;;;;20.98;77.81;101712.00;5023978;28;20084;-80
2021/07/21 07:04:57;;;;;;;21.92;11.00;;;;;;;21.03;77.91;101717.66;5010393;28;20026;-80
2021/07/21 07:07:22;;;;;;;15.95;9.20;;;;;;;21.04;77.36;101709.25;5012486;28;20034;-80
2021/07/21 07:09:48;;;;;;;22.08;10.40;;;;;;;21.03;76.95;101713.00;5008650;28;20059;-80
2021/07/21 07:12:14;;;;;;;19.33;10.02;;;;;;;21.03;76.92;101699.34;5014551;28;20026;-80
2021/07/21 07:14:39;;;;;;;18.75;9.25;;;;;;;21.10;76.18;101712.16;5005737;28;20041;-80
2021/07/21 07:17:05;;;;;;;15.05;7.95;;;;;;;21.16;75.21;101711.25;5010605;28;20041;-80
2021/07/21 07:19:30;;;;;;;17.20;8.50;;;;;;;21.08;74.53;101704.97;5007765;28;20136;-80
2021/07/21 07:21:58;;;;;;;14.45;9.20;;;;;;;21.13;74.43;101717.16;5012333;28;20030;-80
2021/07/21 07:24:24;;;;;;;14.95;8.93;;;;;;;21.24;74.18;101724.63;5008739;28;20034;-78
2021/07/21 07:26:49;;;;;;;12.52;8.48;;;;;;;21.40;73.85;101729.56;5005250;28;20057;-78
2021/07/21 07:29:15;;;;;;;15.50;8.80;;;;;;;21.57;72.62;101726.28;5003319;28;20050;-78
2021/07/21 07:31:40;;;;;;;14.48;8.55;;;;;;;21.69;71.59;101738.97;5003325;28;20085;-81
2021/07/21 07:34:06;;;;;;;13.07;8.52;;;;;;;21.82;70.84;101726.22;5008963;28;20592;-80
2021/07/21 07:36:31;;;;;;;14.25;7.47;;;;;;;21.98;70.33;101719.31;5011490;28;20021;-80
2021/07/21 07:38:57;;;;;;;12.43;8.30;;;;;;;22.06;69.96;101722.56;5010370;28;20580;-80
2021/07/21 07:41:22;;;;;;;13.77;8.75;;;;;;;22.06;69.75;101713.53;5009921;28;20400;-80
2021/07/21 07:43:50;;;;;;;16.23;8.55;;;;;;;22.23;69.53;101717.34;5003861;28;20044;-81
2021/07/21 07:46:15;;;;;;;14.68;7.85;;;;;;;22.34;68.95;101718.47;4999934;28;20029;-80
2021/07/21 07:48:41;;;;;;;15.70;8.10;;;;;;;22.54;68.88;101723.69;5008368;28;20018;-79
2021/07/21 07:51:06;;;;;;;14.48;8.02;;;;;;;22.72;67.92;101731.03;5007241;28;20027;-80
2021/07/21 07:53:31;;;;;;;12.65;7.63;;;;;;;22.89;66.45;101725.69;5007806;28;20033;-82
2021/07/21 07:55:57;;;;;;;19.70;7.70;;;;;;;23.02;65.90;101731.00;5010006;28;20018;-80
2021/07/21 07:58:23;;;;;;;12.05;7.07;;;;;;;23.21;64.87;101732.59;5009602;28;20064;-79
2021/07/21 08:00:49;;;;;;;14.68;7.63;;;;;;;23.30;64.61;101721.28;5008899;28;20033;-80
2021/07/21 08:03:14;;;;;;;10.07;6.72;;;;;;;23.37;64.26;101722.00;5006357;28;20029;-79
2021/07/21 08:05:40;;;;;;;12.05;7.68;;;;;;;23.41;63.15;101726.75;5005056;28;20853;-79
2021/07/21 08:08:06;;;;;;;11.95;7.20;;;;;;;23.53;62.68;101732.28;5029586;28;20030;-79
2021/07/21 08:10:31;;;;;;;12.80;6.70;;;;;;;23.62;61.63;101728.09;5006968;28;20046;-79
2021/07/21 08:12:57;;;;;;;11.55;7.30;;;;;;;23.69;61.88;101731.53;5009059;28;20120;-80
2021/07/21 08:15:23;;;;;;;11.68;7.35;;;;;;;23.89;61.91;101725.69;5008125;28;20057;-79
2021/07/21 08:17:48;;;;;;;10.43;7.70;;;;;;;24.10;62.01;101732.47;5009001;28;20057;-79
2021/07/21 08:20:14;;;;;;;11.13;6.88;;;;;;;24.19;60.43;101727.44;5010899;28;20125;-78
2021/07/21 08:22:40;;;;;;;12.63;7.13;;;;;;;24.13;59.81;101725.63;5013361;28;20468;-78
2021/07/21 08:25:11;;;;;;;9.50;7.07;;;;;;;24.27;59.48;101737.22;5010041;28;20033;-79
2021/07/21 08:27:36;;;;;;;10.32;6.85;;;;;;;24.41;59.31;101724.84;5011325;28;20025;-79
2021/07/21 08:30:05;;;;;;;12.43;7.75;;;;;;;24.65;58.48;101730.28;5010335;28;20030;-80
2021/07/21 08:32:31;;;;;;;15.82;7.32;;;;;;;24.81;57.38;101723.97;5008543;28;20038;-79
2021/07/21 08:34:57;;;;;;;12.05;7.45;;;;;;;24.96;56.86;101731.69;5010042;28;20096;-79
2021/07/21 08:37:22;;;;;;;11.10;6.97;;;;;;;25.17;56.32;101735.66;5014527;28;20044;-78
2021/07/21 08:39:47;;;;;;;11.68;7.28;;;;;;;25.31;54.68;101741.66;5013871;28;20030;-79
2021/07/21 08:42:13;;;;;;;13.55;6.85;;;;;;;25.36;53.85;101741.72;5016170;28;20037;-80
2021/07/21 08:44:38;;;;;;;13.13;7.45;;;;;;;25.40;53.12;101740.13;5010918;28;20036;-79
2021/07/21 08:47:07;;;;;;;15.45;7.60;;;;;;;25.40;52.44;101751.13;5012766;28;20034;-78
2021/07/21 08:49:33;;;;;;;15.07;7.50;;;;;;;25.41;53.16;101742.63;5009114;28;20034;-80
2021/07/21 08:51:58;;;;;;;17.75;8.00;;;;;;;25.48;53.06;101756.22;5014961;28;20434;-80
2021/07/21 08:54:24;;;;;;;14.48;7.65;;;;;;;25.40;53.23;101746.50;5006658;28;20101;-84
2021/07/21 08:56:50;;;;;;;11.82;7.45;;;;;;;25.42;53.29;101747.03;5010968;28;20472;-83
2021/07/21 08:59:16;;;;;;;16.27;7.70;;;;;;;25.36;53.01;101738.97;4994996;28;20028;-83
2021/07/21 09:01:42;;;;;;;14.48;8.07;;;;;;;25.63;53.30;101739.09;5012245;28;20072;-83
2021/07/21 09:04:07;;;;;;;14.57;8.13;;;;;;;25.69;52.92;101721.56;5011385;28;20033;-82
2021/07/21 09:06:33;;;;;;;11.90;7.45;;;;;;;25.98;52.91;101737.97;5010813;28;20061;-82
2021/07/21 09:08:58;;;;;;;13.35;8.10;;;;;;;26.09;52.68;101732.34;5010825;28;20470;-82
2021/07/21 09:11:24;;;;;;;15.35;7.68;;;;;;;26.34;52.32;101738.44;5011184;28;20048;-82
2021/07/21 09:13:49;;;;;;;15.57;7.75;;;;;;;26.36;51.45;101736.22;5011272;28;20026;-82
2021/07/21 09:16:15;;;;;;;11.40;7.35;;;;;;;26.43;51.20;101739.63;5010841;28;20503;-83
2021/07/21 09:18:51;;;;;;;12.32;8.05;;;;;;;26.55;52.22;101745.88;5011020;28;20113;-82
2021/07/21 09:21:20;;;;;;;15.93;8.55;;;;;;;26.48;51.04;101745.19;5010731;28;20025;-83
2021/07/21 09:23:48;;;;;;;16.00;8.45;;;;;;;26.28;50.67;101738.38;5020080;28;20018;-82
2021/07/21 09:26:32;;;;;;;12.77;8.45;;;;;;;26.09;51.44;101737.84;4992895;28;20019;-83
2021/07/21 09:28:59;;;;;;;13.02;8.70;;;;;;;25.96;51.33;101735.47;5010669;28;20050;-83
2021/07/21 09:31:33;;;;;;;15.10;9.02;;;;;;;26.11;50.99;101743.09;5010415;28;20105;-82
2021/07/21 09:34:10;;;;;;;16.92;9.60;;;;;;;26.31;49.89;101737.84;5011854;28;20404;-82
2021/07/21 09:36:35;;;;;;;13.80;8.90;;;;;;;26.51;49.42;101729.00;5003291;28;20014;-82
2021/07/21 09:39:01;;;;;;;13.88;8.52;;;;;;;26.58;49.35;101741.75;5006781;28;20084;-83
2021/07/21 09:41:26;;;;;;;13.23;8.82;;;;;;;26.43;49.13;101742.38;5010512;28;20137;-83
2021/07/21 09:43:58;;;;;;;16.70;9.85;;;;;;;26.32;49.71;101742.25;5010267;28;20022;-82
2021/07/21 09:46:24;;;;;;;18.45;9.23;;;;;;;26.22;49.56;101744.88;5010205;28;20026;-82
2021/07/21 09:48:49;;;;;;;16.67;9.25;;;;;;;26.14;50.10;101744.50;4993387;28;20017;-83
2021/07/21 09:51:30;;;;;;;16.83;9.07;;;;;;;26.17;50.30;101749.50;5010416;28;20025;-83
2021/07/21 09:53:55;;;;;;;16.95;9.65;;;;;;;26.15;49.96;101741.50;4993830;28;20045;-82
2021/07/21 09:56:29;;;;;;;14.25;8.65;;;;;;;26.42;49.81;101747.06;5010284;28;20061;-83
2021/07/21 09:59:17;;;;;;;16.88;9.15;;;;;;;26.64;49.43;101752.56;4993897;28;20842;-83
2021/07/21 10:01:43;;;;;;;12.30;8.52;;;;;;;26.86;49.89;101740.66;5009941;28;20024;-82
2021/07/21 10:04:08;;;;;;;18.10;8.48;;;;;;;27.18;48.76;101752.59;5010189;28;20130;-82
2021/07/21 10:06:40;;;;;;;16.27;9.02;;;;;;;27.39;48.49;101750.81;5011306;28;20025;-83
2021/07/21 10:09:06;;;;;;;17.60;9.45;;;;;;;27.50;48.04;101754.50;5010149;28;20542;-83
2021/07/21 10:11:36;;;;;;;18.88;9.02;;;;;;;27.58;47.69;101755.94;5009472;28;20050;-83
2021/07/21 10:14:02;;;;;;;16.45;8.98;;;;;;;27.48;47.62;101762.19;5010308;28;20116;-83
2021/07/21 10:16:44;;;;;;;15.15;9.35;;;;;;;27.53;47.49;101756.72;5009516;28;20045;-82
2021/07/21 10:19:17;;;;;;;18.35;9.73;;;;;;;27.56;47.44;101761.69;5009853;28;20026;-83
2021/07/21 10:21:53;;;;;;;13.75;9.00;;;;;;;27.73;47.09;101750.50;5008407;28;20022;-83
2021/07/21 10:24:20;;;;;;;17.58;9.95;;;;;;;27.90;46.82;101766.94;5011236;28;20030;-83
2021/07/21 10:26:46;;;;;;;18.50;9.82;;;;;;;27.84;46.36;101762.47;5009535;28;20480;-84
2021/07/21 10:29:12;;;;;;;13.48;9.35;;;;;;;27.72;46.58;101753.53;4993289;28;20025;-83
2021/07/21 10:31:39;;;;;;;13.60;8.75;;;;;;;27.89;46.89;101762.50;5009440;28;20383;-83
2021/07/21 10:34:05;;;;;;;19.05;8.98;;;;;;;28.03;46.74;101757.31;5009365;28;20026;-82
2021/07/21 10:36:32;;;;;;;14.02;9.32;;;;;;;28.00;46.27;101767.00;5009383;28;20022;-83
2021/07/21 10:39:00;;;;;;;13.90;8.68;;;;;;;27.91;45.93;101746.47;4993014;28;20026;-83
2021/07/21 10:41:29;;;;;;;13.77;9.27;;;;;;;27.96;46.00;101749.25;5009411;28;20026;-83
2021/07/21 10:43:56;;;;;;;17.33;10.02;;;;;;;28.13;46.62;101760.16;5010327;28;20080;-83
2021/07/21 10:46:33;;;;;;;20.80;9.57;;;;;;;28.22;46.14;101760.44;4992491;28;20022;-83
2021/07/21 10:49:40;;;;;;;13.63;9.32;;;;;;;28.27;46.25;101754.94;5009633;28;20029;-83
2021/07/21 10:55:16;;;;;;;16.98;9.15;;;;;;;28.75;44.45;101758.41;5009130;28;20060;-83
2021/07/21 11:00:53;;;;;;;19.23;10.32;;;;;;;28.49;43.74;101750.06;5006905;28;20587;-83
2021/07/21 11:03:23;;;;;;;16.70;9.52;;;;;;;28.57;43.42;101757.00;5007187;28;20316;-79
2021/07/21 11:06:02;;;;;;;18.15;9.23;;;;;;;28.66;44.09;101757.31;5010110;28;20072;-83
2021/07/21 11:08:29;;;;;;;15.23;8.30;;;;;;;28.63;44.07;101750.38;5017152;28;20506;-84
2021/07/21 11:11:16;;;;;;;18.75;9.18;;;;;;;28.82;44.41;101733.25;5002923;28;20021;-84
2021/07/21 11:13:41;;;;;;;15.73;10.07;;;;;;;28.90;43.07;101747.38;5017130;28;20103;-83
2021/07/21 11:16:36;;;;;;;17.58;9.35;;;;;;;28.77;42.85;101747.91;5013660;28;20049;-85
2021/07/21 11:19:30;;;;;;;15.77;9.52;;;;;;;28.88;42.74;101746.00;5003417;28;20055;-83
2021/07/21 11:22:04;;;;;;;15.68;9.32;;;;;;;28.87;43.03;101738.78;5014766;28;20263;-83
2021/07/21 11:24:33;;;;;;;14.70;8.88;;;;;;;29.09;43.28;101744.94;5010042;28;20018;-83
2021/07/21 11:26:58;;;;;;;17.95;9.52;;;;;;;28.99;42.19;101732.97;5018401;28;20030;-83
2021/07/21 11:29:24;;;;;;;14.52;9.57;;;;;;;29.19;41.98;101735.78;5009258;28;20022;-84
2021/07/21 11:31:49;;;;;;;13.32;9.43;;;;;;;29.33;42.14;101739.66;5010920;28;20026;-83